Time;durP1;ratioP1;P1;durP2;ratioP2;P2;SDS_P1;SDS_P2;PMS_P1;PMS_P2;Temp;Humidity;BMP_temperature;BMP_pressure;BME280_temperature;BME280_humidity;BME280_pressure;Samples;Min_cycle;Max_cycle;Signal;HPM_P1;HPM_P2
2023/11/13 00:00:47;;;;;;;8.50;4.90;;;;;;;-1.75;87.43;95472.98;106616;1267;22526;-78
2023/11/13 00:03:35;;;;;;;8.50;5.40;;;;;;;-1.83;87.62;95476.73;106645;1275;22524;-78
2023/11/13 00:06:04;;;;;;;9.30;5.50;;;;;;;-1.89;87.99;95474.48;106664;1275;23952;-78
2023/11/13 00:08:33;;;;;;;5.50;3.60;;;;;;;-1.92;87.52;95473.56;106647;1275;22532;-77
2023/11/13 00:11:03;;;;;;;2.40;1.70;;;;;;;-1.89;87.34;95479.83;106679;1275;22659;-78
2023/11/13 00:13:32;;;;;;;2.10;1.70;;;;;;;-1.85;87.32;95483.21;106625;1275;22530;-78
2023/11/13 00:16:00;;;;;;;1.60;1.30;;;;;;;-1.83;87.19;95483.80;106636;1275;22632;-78
2023/11/13 00:18:29;;;;;;;1.90;1.20;;;;;;;-1.86;87.06;95488.73;106703;1275;25293;-78
2023/11/13 00:20:57;;;;;;;5.50;3.40;;;;;;;-1.91;87.35;95489.60;106685;1263;22512;-78
2023/11/13 00:23:27;;;;;;;10.30;4.40;;;;;;;-1.98;87.40;95488.73;106687;1275;25276;-78
2023/11/13 00:25:55;;;;;;;6.00;3.50;;;;;;;-1.95;87.44;95491.41;106810;1253;22529;-78
2023/11/13 00:28:24;;;;;;;6.30;3.10;;;;;;;-1.93;87.76;95487.32;106712;1275;25409;-78
2023/11/13 00:30:52;;;;;;;8.10;5.00;;;;;;;-1.92;87.67;95489.57;106684;1274;25367;-78
2023/11/13 00:33:20;;;;;;;7.30;4.60;;;;;;;-1.93;87.67;95488.53;106629;1275;25416;-78
2023/11/13 00:35:48;;;;;;;8.50;4.80;;;;;;;-1.92;87.82;95485.43;106590;1275;25401;-78
2023/11/13 00:38:16;;;;;;;3.10;2.20;;;;;;;-1.96;87.24;95485.33;106727;1275;24418;-78
2023/11/13 00:40:45;;;;;;;4.70;1.90;;;;;;;-1.93;87.57;95482.50;106597;1275;23913;-78
2023/11/13 00:43:14;;;;;;;3.10;1.80;;;;;;;-1.81;88.15;95475.23;106657;1275;22637;-78
2023/11/13 00:45:43;;;;;;;2.40;1.50;;;;;;;-1.70;88.01;95467.23;106677;1263;22547;-78
2023/11/13 00:48:12;;;;;;;4.90;2.70;;;;;;;-1.65;87.94;95466.34;106698;1269;24221;-78
2023/11/13 00:50:41;;;;;;;6.10;3.70;;;;;;;-1.64;87.45;95464.63;106719;1275;22607;-78
2023/11/13 00:53:10;;;;;;;4.30;2.40;;;;;;;-1.64;87.11;95465.31;106724;1275;22524;-78
2023/11/13 00:55:39;;;;;;;3.20;1.70;;;;;;;-1.68;86.85;95464.18;106623;1275;24208;-78
2023/11/13 00:58:07;;;;;;;1.50;1.30;;;;;;;-1.65;87.14;95463.58;106628;1275;22523;-78
2023/11/13 01:00:35;;;;;;;2.70;1.10;;;;;;;-1.62;87.13;95468.98;106718;1275;22536;-78
2023/11/13 01:03:04;;;;;;;4.30;1.50;;;;;;;-1.60;87.19;95474.40;106606;1275;25356;-78
2023/11/13 01:05:33;;;;;;;2.50;1.30;;;;;;;-1.59;87.40;95481.49;106668;1275;25512;-78
2023/11/13 01:08:03;;;;;;;2.90;1.50;;;;;;;-1.55;87.56;95488.31;106721;1275;26676;-78
2023/11/13 01:10:31;;;;;;;3.30;2.20;;;;;;;-1.48;87.60;95489.88;106686;1275;24249;-78
2023/11/13 01:12:59;;;;;;;1.80;1.50;;;;;;;-1.42;87.35;95492.29;106635;1275;22657;-78
2023/11/13 01:15:28;;;;;;;2.40;1.70;;;;;;;-1.49;86.35;95487.09;106431;1275;305325;-78
2023/11/13 01:17:56;;;;;;;1.70;1.10;;;;;;;-1.60;86.22;95488.87;106633;1275;24235;-78
2023/11/13 01:20:25;;;;;;;3.10;1.00;;;;;;;-1.70;86.45;95491.91;106639;1275;23913;-78
2023/11/13 01:22:53;;;;;;;2.00;1.10;;;;;;;-1.73;87.06;95498.17;106685;1275;25504;-78
2023/11/13 01:25:21;;;;;;;2.70;1.30;;;;;;;-1.78;86.91;95497.19;106638;1275;22521;-78
2023/11/13 01:27:50;;;;;;;3.80;2.10;;;;;;;-1.80;87.29;95490.92;106674;1275;25396;-78
2023/11/13 01:30:19;;;;;;;3.20;2.40;;;;;;;-1.79;87.35;95488.36;106594;1275;22642;-78
2023/11/13 01:32:47;;;;;;;3.80;2.40;;;;;;;-1.80;87.35;95489.93;106653;1275;24271;-78
2023/11/13 01:35:16;;;;;;;3.20;2.60;;;;;;;-1.79;87.44;95486.31;106705;1275;22544;-78
2023/11/13 01:37:46;;;;;;;5.00;2.40;;;;;;;-1.79;87.36;95489.92;106670;1275;22524;-78
2023/11/13 01:40:14;;;;;;;2.90;2.00;;;;;;;-1.83;86.97;95491.21;106668;1275;25316;-78
2023/11/13 01:42:42;;;;;;;5.50;2.60;;;;;;;-1.84;87.00;95491.70;106640;1275;22639;-78
2023/11/13 01:45:11;;;;;;;4.10;2.80;;;;;;;-1.87;86.73;95494.89;106674;1275;25601;-78
2023/11/13 01:47:39;;;;;;;3.40;1.70;;;;;;;-1.95;86.67;95493.47;106712;1275;24389;-78
2023/11/13 01:50:09;;;;;;;1.70;1.20;;;;;;;-1.99;86.83;95491.47;106703;1275;25352;-78
2023/11/13 01:52:39;;;;;;;3.80;2.10;;;;;;;-2.04;87.10;95493.90;106716;1274;22537;-78
2023/11/13 01:55:10;;;;;;;3.90;2.60;;;;;;;-2.08;87.06;95498.27;106740;1275;22525;-78
2023/11/13 01:57:43;;;;;;;2.60;1.50;;;;;;;-2.11;87.25;95499.23;106641;1275;24267;-78
2023/11/13 02:00:12;;;;;;;2.20;1.30;;;;;;;-2.13;87.46;95497.96;106635;1275;23018;-78
2023/11/13 02:02:41;;;;;;;20.10;7.30;;;;;;;-2.15;87.77;95502.55;106775;1274;24256;-78
2023/11/13 02:05:09;;;;;;;21.00;8.50;;;;;;;-2.19;87.52;95502.45;106668;1275;22540;-78
2023/11/13 02:07:43;;;;;;;27.60;11.40;;;;;;;-2.25;87.59;95500.73;106674;1275;25307;-77
2023/11/13 02:10:13;;;;;;;10.50;4.60;;;;;;;-2.28;87.63;95502.00;106805;1274;24265;-78
2023/11/13 02:12:42;;;;;;;2.20;1.40;;;;;;;-2.30;87.89;95495.91;106641;1275;23920;-78
2023/11/13 02:15:10;;;;;;;1.30;1.00;;;;;;;-2.29;87.89;95497.85;106607;1274;25526;-78
2023/11/13 02:17:40;;;;;;;3.70;1.60;;;;;;;-2.28;87.80;95494.78;106695;1275;24386;-78
2023/11/13 02:20:08;;;;;;;11.10;5.90;;;;;;;-2.28;88.11;95492.35;106676;1275;22520;-78
2023/11/13 02:22:37;;;;;;;5.90;2.80;;;;;;;-2.35;87.51;95487.52;106638;1274;22604;-77
2023/11/13 02:25:10;;;;;;;9.70;4.80;;;;;;;-2.36;88.09;95494.19;106696;1275;25351;-78
2023/11/13 02:27:39;;;;;;;;;;;;;;;-2.38;88.32;95492.75;106753;1274;25521;-78
2023/11/13 02:30:09;;;;;;;9.60;5.00;;;;;;;-2.36;88.52;95494.90;106718;1275;24288;-78
2023/11/13 02:32:37;;;;;;;6.40;4.00;;;;;;;-2.27;88.75;95492.22;106645;1275;22548;-78
2023/11/13 02:35:06;;;;;;;6.60;3.20;;;;;;;-2.19;88.88;95491.58;106499;1274;22533;-78
2023/11/13 02:37:34;;;;;;;1.40;0.60;;;;;;;-2.05;89.15;95490.24;106767;1261;23929;-78
2023/11/13 02:40:03;;;;;;;0.90;0.80;;;;;;;-1.93;88.94;95489.38;106523;1274;26707;-78
2023/11/13 02:42:34;;;;;;;1.20;0.90;;;;;;;-1.89;88.14;95488.64;106688;1274;22642;-78
2023/11/13 02:45:04;;;;;;;9.90;2.60;;;;;;;-1.91;87.65;95485.96;106729;1274;25249;-78
2023/11/13 02:47:33;;;;;;;0.60;0.60;;;;;;;-1.93;87.55;95487.13;106702;1274;22551;-78
2023/11/13 02:50:02;;;;;;;0.80;0.60;;;;;;;-1.89;87.94;95490.86;106715;1259;22583;-78
2023/11/13 02:52:30;;;;;;;0.80;0.50;;;;;;;-1.79;88.34;95493.20;106766;1265;22570;-78
2023/11/13 02:54:59;;;;;;;16.20;5.40;;;;;;;-1.76;87.59;95499.67;106673;1274;22528;-78
2023/11/13 02:57:27;;;;;;;57.50;18.80;;;;;;;-1.73;86.77;95504.05;106698;1274;24233;-78
2023/11/13 02:59:55;;;;;;;54.10;17.00;;;;;;;-1.80;86.16;95505.06;106724;1275;24295;-78
2023/11/13 03:02:23;;;;;;;2.00;0.90;;;;;;;-1.83;86.39;95507.58;106691;1274;25355;-78
2023/11/13 03:04:51;;;;;;;1.90;0.90;;;;;;;-1.78;87.07;95512.20;106719;1274;24271;-78
2023/11/13 03:07:20;;;;;;;1.30;0.60;;;;;;;-1.79;86.79;95513.71;106642;1274;22644;-78
2023/11/13 03:09:48;;;;;;;1.30;0.70;;;;;;;-1.81;86.74;95519.70;106762;1274;22528;-78
2023/11/13 03:12:16;;;;;;;0.50;0.40;;;;;;;-1.82;86.86;95522.95;106692;1274;22749;-78
2023/11/13 03:14:44;;;;;;;0.70;0.60;;;;;;;-1.84;86.77;95523.44;106660;1274;22658;-78
2023/11/13 03:17:12;;;;;;;6.20;2.30;;;;;;;-1.88;86.64;95525.73;106649;1274;25308;-78
2023/11/13 03:19:41;;;;;;;10.50;4.40;;;;;;;-1.90;87.00;95526.68;106751;1274;24258;-78
2023/11/13 03:22:10;;;;;;;1.50;0.80;;;;;;;-1.92;87.12;95521.96;106688;1274;25600;-78
2023/11/13 03:24:39;;;;;;;1.50;0.70;;;;;;;-1.90;87.24;95521.52;106725;1274;24394;-78
2023/11/13 03:27:08;;;;;;;1.80;0.60;;;;;;;-1.90;87.03;95516.35;106733;1274;22928;-78
2023/11/13 03:29:36;;;;;;;4.60;2.00;;;;;;;-1.94;86.73;95523.83;106700;1274;22543;-78
2023/11/13 03:32:04;;;;;;;2.80;0.70;;;;;;;-2.02;86.40;95527.73;106712;1274;22543;-78
2023/11/13 03:34:33;;;;;;;1.00;0.50;;;;;;;-2.03;86.75;95525.99;106775;1274;22543;-78
2023/11/13 03:37:01;;;;;;;2.20;0.60;;;;;;;-2.01;86.92;95531.56;106680;1264;22623;-78
2023/11/13 03:39:29;;;;;;;0.50;0.50;;;;;;;-2.01;86.96;95522.77;106677;1274;24426;-77
2023/11/13 03:41:58;;;;;;;1.10;0.50;;;;;;;-2.06;86.80;95524.70;106805;1274;24239;-78
2023/11/13 03:44:26;;;;;;;17.50;6.60;;;;;;;-2.12;86.84;95523.48;106703;1274;22518;-78
2023/11/13 03:46:54;;;;;;;8.70;3.90;;;;;;;-2.24;86.80;95519.54;106715;1274;22536;-78
2023/11/13 03:49:22;;;;;;;3.10;1.60;;;;;;;-2.30;86.91;95513.48;106744;1264;22527;-78
2023/11/13 03:51:51;;;;;;;0.80;0.60;;;;;;;-2.30;87.11;95519.34;106747;1274;22527;-78
2023/11/13 03:54:19;;;;;;;1.00;0.60;;;;;;;-2.30;87.14;95517.45;106746;1274;23357;-78
2023/11/13 03:56:47;;;;;;;0.60;0.40;;;;;;;-2.27;87.05;95514.95;106698;1274;22526;-78
2023/11/13 03:59:15;;;;;;;0.60;0.50;;;;;;;-2.24;87.11;95517.11;106681;1260;25297;-78
2023/11/13 04:01:47;;;;;;;0.80;0.50;;;;;;;-2.25;87.05;95518.81;106780;1274;22660;-78
2023/11/13 04:04:15;;;;;;;1.60;0.80;;;;;;;-2.26;86.84;95519.14;106729;1274;24251;-78
2023/11/13 04:06:44;;;;;;;0.60;0.50;;;;;;;-2.31;86.77;95520.86;106693;1274;24292;-77
2023/11/13 04:09:12;;;;;;;1.30;0.80;;;;;;;-2.30;86.90;95521.77;106760;1274;22752;-78
2023/11/13 04:11:40;;;;;;;11.50;5.10;;;;;;;-2.28;87.41;95516.66;106692;1275;25627;-78
2023/11/13 04:14:08;;;;;;;31.20;11.70;;;;;;;-2.28;87.22;95517.86;106678;1274;25317;-78
2023/11/13 04:16:36;;;;;;;50.60;19.30;;;;;;;-2.30;87.13;95518.46;106744;1275;22655;-78
2023/11/13 04:19:08;;;;;;;40.50;15.60;;;;;;;-2.33;87.17;95525.98;106708;1275;22527;-78
2023/11/13 04:21:37;;;;;;;2.80;1.70;;;;;;;-2.33;87.36;95534.23;106698;1275;22530;-78
2023/11/13 04:24:06;;;;;;;4.70;2.10;;;;;;;-2.32;87.65;95538.05;106725;1274;24221;-78
2023/11/13 04:26:34;;;;;;;32.20;12.40;;;;;;;-2.31;87.54;95538.96;106719;1274;26538;-78
2023/11/13 04:29:02;;;;;;;27.60;12.10;;;;;;;-2.33;87.07;95539.59;106700;1275;23919;-78
2023/11/13 04:31:31;;;;;;;32.40;14.20;;;;;;;-2.37;86.60;95536.72;106694;1275;22523;-78
2023/11/13 04:34:00;;;;;;;7.60;2.40;;;;;;;-2.35;87.05;95529.34;106641;1275;24436;-78
2023/11/13 04:36:28;;;;;;;1.90;0.70;;;;;;;-2.31;87.41;95532.08;106740;1275;25316;-78
2023/11/13 04:38:57;;;;;;;0.70;0.50;;;;;;;-2.18;88.18;95531.92;106757;1275;25493;-78
2023/11/13 04:41:26;;;;;;;1.80;1.00;;;;;;;-2.16;87.47;95535.27;106691;1275;25317;-78
2023/11/13 04:43:54;;;;;;;13.40;5.60;;;;;;;-2.15;87.26;95537.88;106811;1275;22527;-78
2023/11/13 04:46:22;;;;;;;81.70;33.80;;;;;;;-2.18;86.77;95538.98;106719;1275;23009;-78
2023/11/13 04:48:51;;;;;;;131.60;57.20;;;;;;;-2.20;86.82;95537.91;106653;1275;24059;-78
2023/11/13 04:51:19;;;;;;;33.70;13.00;;;;;;;-2.26;86.60;95540.33;106744;1274;24232;-78
2023/11/13 04:53:47;;;;;;;2.30;1.10;;;;;;;-2.22;87.14;95539.23;106759;1275;22527;-78
2023/11/13 04:56:16;;;;;;;1.20;0.80;;;;;;;-2.15;87.29;95544.24;106697;1275;22574;-79
2023/11/13 04:58:43;;;;;;;1.40;0.70;;;;;;;-2.10;87.38;95539.91;106767;1260;25316;-79
2023/11/13 05:01:12;;;;;;;0.90;0.40;;;;;;;-2.08;87.31;95537.56;106736;1275;25335;-79
2023/11/13 05:03:40;;;;;;;0.30;0.30;;;;;;;-2.02;87.42;95528.43;106687;1275;24352;-79
2023/11/13 05:06:15;;;;;;;0.50;0.30;;;;;;;-2.01;87.29;95523.46;106777;1275;25257;-79
2023/11/13 05:08:44;;;;;;;2.70;1.10;;;;;;;-1.95;87.66;95521.39;106716;1275;25435;-78
2023/11/13 05:11:22;;;;;;;1.40;0.70;;;;;;;-1.90;87.66;95521.89;106681;1275;22532;-79
2023/11/13 05:13:51;;;;;;;0.70;0.60;;;;;;;-1.85;87.47;95519.27;106742;1275;23296;-79
2023/11/13 05:16:21;;;;;;;23.70;11.90;;;;;;;-1.94;86.24;95527.78;106765;1275;25330;-79
2023/11/13 05:18:51;;;;;;;35.50;17.40;;;;;;;-2.06;85.66;95527.45;106789;1275;22539;-79
2023/11/13 05:21:21;;;;;;;50.00;22.70;;;;;;;-2.12;86.05;95527.27;106731;1275;24225;-79
2023/11/13 05:23:49;;;;;;;45.60;22.30;;;;;;;-2.23;85.78;95526.64;106724;1275;22639;-78
2023/11/13 05:26:18;;;;;;;40.40;20.40;;;;;;;-2.28;85.98;95523.70;106808;1275;22530;-79
2023/11/13 05:28:47;;;;;;;9.20;4.60;;;;;;;-2.31;86.22;95527.08;106768;1275;22531;-79
2023/11/13 05:31:15;;;;;;;2.50;1.30;;;;;;;-2.31;86.47;95526.38;106676;1275;25465;-78
2023/11/13 05:33:44;;;;;;;22.00;10.20;;;;;;;-2.30;86.46;95530.56;106748;1275;25347;-78
2023/11/13 05:36:12;;;;;;;65.20;26.60;;;;;;;-2.41;86.08;95539.52;106705;1275;22521;-79
2023/11/13 05:38:44;;;;;;;45.40;18.80;;;;;;;-2.52;86.52;95542.11;106620;1274;25439;-79
2023/11/13 05:41:12;;;;;;;50.70;21.20;;;;;;;-2.60;86.50;95547.40;106803;1275;24379;-79
2023/11/13 05:43:40;;;;;;;53.60;21.90;;;;;;;-2.69;86.65;95551.94;106604;1275;25649;-79
2023/11/13 05:46:08;;;;;;;48.80;20.90;;;;;;;-2.73;86.88;95552.48;106584;1275;24286;-79
2023/11/13 05:48:37;;;;;;;40.50;16.60;;;;;;;-2.75;87.08;95557.24;106739;1275;25393;-79
2023/11/13 05:51:06;;;;;;;14.60;7.50;;;;;;;-2.74;87.18;95565.02;106595;1275;24495;-79
2023/11/13 06:01:18;;;;;;;37.80;15.20;;;;;;;-2.64;86.79;95570.17;103945;1305;545279;-82
2023/11/13 06:03:46;;;;;;;52.90;20.10;;;;;;;-2.69;87.24;95571.73;106333;1286;24286;-78
2023/11/13 06:06:16;;;;;;;41.90;18.40;;;;;;;-2.70;87.37;95569.29;106243;1286;22742;-80
2023/11/13 06:08:47;;;;;;;358.20;177.60;;;;;;;-2.75;87.46;95567.91;106122;1286;24285;-80
2023/11/13 06:11:15;;;;;;;14.20;7.30;;;;;;;-2.74;87.82;95572.79;106369;1286;25285;-77
2023/11/13 06:13:46;;;;;;;7.80;1.90;;;;;;;-2.65;87.85;95568.25;106233;1284;227143;-79
2023/11/13 06:16:14;;;;;;;42.60;16.20;;;;;;;-2.54;87.85;95566.33;106428;1284;22526;-80
2023/11/13 06:18:50;;;;;;;2.00;0.60;;;;;;;-2.44;87.95;95565.44;106790;1277;22560;-79
2023/11/13 06:21:19;;;;;;;17.00;7.70;;;;;;;-2.34;88.44;95563.52;106682;1278;22756;-78
2023/11/13 06:23:48;;;;;;;70.20;29.60;;;;;;;-2.25;88.44;95559.65;106760;1277;22530;-79
2023/11/13 06:26:16;;;;;;;2.10;1.30;;;;;;;-2.13;88.49;95555.16;106862;1277;25249;-79
2023/11/13 06:28:44;;;;;;;0.20;0.20;;;;;;;-1.95;88.79;95550.00;106807;1277;22595;-81
2023/11/13 06:31:12;;;;;;;0.60;0.50;;;;;;;-1.83;88.63;95551.90;106654;1277;22521;-78
2023/11/13 06:33:42;;;;;;;0.40;0.40;;;;;;;-1.69;88.37;95556.75;106671;1277;22591;-78
2023/11/13 06:36:10;;;;;;;1.60;0.50;;;;;;;-1.58;88.16;95554.83;106722;1277;22527;-79
2023/11/13 06:38:38;;;;;;;40.70;19.70;;;;;;;-1.43;88.12;95558.85;106889;1274;22537;-78
2023/11/13 06:41:07;;;;;;;64.80;31.00;;;;;;;-1.28;87.77;95555.80;107001;1274;25257;-78
2023/11/13 06:43:35;;;;;;;73.90;34.40;;;;;;;-1.08;87.86;95553.90;106692;1273;24409;-79
2023/11/13 06:46:04;;;;;;;109.30;52.70;;;;;;;-0.87;87.68;95555.77;107052;1273;22527;-79
2023/11/13 06:48:33;;;;;;;68.30;33.60;;;;;;;-0.62;87.69;95554.48;106927;1274;22551;-79
2023/11/13 06:51:01;;;;;;;47.60;23.00;;;;;;;-0.35;87.63;95550.64;106960;1273;22523;-78
2023/11/13 06:53:29;;;;;;;43.20;20.40;;;;;;;-0.21;86.62;95541.23;106896;1273;24681;-78
2023/11/13 06:55:57;;;;;;;8.00;4.20;;;;;;;-0.17;85.54;95543.40;106988;1273;22533;-79
2023/11/13 06:58:26;;;;;;;9.10;5.10;;;;;;;-0.22;85.10;95545.73;107134;1273;25319;-80
2023/11/13 07:00:55;;;;;;;8.90;4.10;;;;;;;-0.13;85.57;95538.50;106988;1273;22541;-79
2023/11/13 07:03:24;;;;;;;38.20;17.00;;;;;;;-0.02;85.75;95539.06;106983;1273;22570;-80
2023/11/13 07:05:53;;;;;;;37.40;19.40;;;;;;;0.16;85.72;95537.18;107185;1273;24225;-80
2023/11/13 07:08:22;;;;;;;32.30;15.90;;;;;;;0.37;85.72;95536.73;107144;1273;24054;-77
2023/11/13 07:10:50;;;;;;;31.30;18.70;;;;;;;0.49;84.61;95541.63;107049;1273;24244;-84
2023/11/13 07:13:19;;;;;;;20.30;11.50;;;;;;;0.54;84.28;95543.13;110639;1273;22178;-80
2023/11/13 07:15:48;;;;;;;23.70;12.60;;;;;;;0.59;84.16;95546.48;107932;1274;22516;-80
2023/11/13 07:18:16;;;;;;;27.00;15.90;;;;;;;0.63;83.69;95550.91;107088;1273;25350;-83
2023/11/13 07:20:46;;;;;;;20.50;12.80;;;;;;;0.69;83.97;95552.05;106783;1273;25434;-85
2023/11/13 07:23:17;;;;;;;17.30;9.40;;;;;;;0.78;83.62;95550.48;106965;1273;24249;-81
2023/11/13 07:25:46;;;;;;;17.60;8.60;;;;;;;0.83;82.98;95551.63;108695;1273;22531;-82
2023/11/13 07:28:15;;;;;;;50.50;26.50;;;;;;;0.91;83.29;95550.38;107253;1273;25403;-82
2023/11/13 07:30:44;;;;;;;23.30;13.00;;;;;;;0.99;83.54;95552.95;106906;1273;24258;-83
2023/11/13 07:33:12;;;;;;;25.90;12.50;;;;;;;1.07;83.32;95546.33;106915;1273;22527;-82
2023/11/13 07:35:40;;;;;;;19.00;11.40;;;;;;;1.14;83.37;95548.17;107042;1273;25340;-80
2023/11/13 07:38:09;;;;;;;28.90;18.80;;;;;;;1.16;84.28;95541.80;107223;1273;22530;-80
2023/11/13 07:40:37;;;;;;;34.30;21.00;;;;;;;1.17;84.03;95535.23;107090;1273;22590;-81
2023/11/13 07:43:08;;;;;;;31.90;18.40;;;;;;;1.17;84.21;95527.61;107063;1273;22536;-80
2023/11/13 07:45:38;;;;;;;23.60;12.40;;;;;;;1.16;84.48;95522.04;106977;1264;22523;-83
2023/11/13 07:48:07;;;;;;;23.70;12.50;;;;;;;1.16;84.54;95527.08;107141;1273;22551;-81
2023/11/13 07:50:37;;;;;;;29.50;18.10;;;;;;;1.22;84.96;95529.59;107076;1273;24379;-82
2023/11/13 07:53:25;;;;;;;21.50;12.20;;;;;;;1.39;85.20;95531.60;106999;1273;25753;-80
2023/11/13 07:55:55;;;;;;;18.20;10.30;;;;;;;1.52;85.16;95532.83;107156;1273;22523;-85
2023/11/13 07:58:25;;;;;;;26.70;14.50;;;;;;;1.62;84.83;95534.55;106995;1261;22523;-84
2023/11/13 08:00:55;;;;;;;14.90;8.50;;;;;;;1.69;85.21;95531.19;108354;1273;24276;-83
2023/11/13 08:03:24;;;;;;;21.80;11.70;;;;;;;1.76;84.48;95523.81;110422;1273;22520;-83
2023/11/13 08:05:53;;;;;;;16.60;9.20;;;;;;;1.84;84.31;95516.83;106964;1273;25488;-81
2023/11/13 08:08:21;;;;;;;12.70;8.10;;;;;;;1.97;84.04;95511.63;106848;1273;24057;-81
2023/11/13 08:10:51;;;;;;;14.20;8.60;;;;;;;2.09;83.71;95510.21;106918;1273;24505;-82
2023/11/13 08:13:21;;;;;;;68.40;30.70;;;;;;;2.19;83.69;95508.59;106852;1273;24269;-83
2023/11/13 08:15:51;;;;;;;34.90;16.70;;;;;;;2.30;83.42;95509.95;107110;1273;23230;-82
2023/11/13 08:18:19;;;;;;;14.90;8.90;;;;;;;2.43;83.35;95513.57;106799;1273;22531;-82
2023/11/13 08:20:47;;;;;;;18.90;12.80;;;;;;;2.56;82.73;95509.71;106949;1273;22533;-81
2023/11/13 08:23:16;;;;;;;14.40;9.20;;;;;;;2.73;83.05;95508.52;106895;1273;24099;-81
2023/11/13 08:25:46;;;;;;;11.80;7.70;;;;;;;2.90;82.12;95507.63;107027;1273;22519;-81
2023/11/13 08:28:14;;;;;;;15.90;9.20;;;;;;;3.06;81.55;95508.84;106992;1273;24153;-82
2023/11/13 08:30:43;;;;;;;20.90;10.80;;;;;;;3.23;81.16;95506.72;106893;1273;22524;-82
2023/11/13 08:33:13;;;;;;;18.90;11.00;;;;;;;3.49;81.99;95497.52;106963;1273;22930;-80
2023/11/13 08:35:41;;;;;;;22.00;12.80;;;;;;;3.79;82.25;95500.15;107111;1273;22526;-80
2023/11/13 08:38:11;;;;;;;21.50;12.20;;;;;;;4.03;81.31;95493.66;106973;1273;22558;-81
2023/11/13 08:40:40;;;;;;;21.20;13.00;;;;;;;4.21;81.30;95488.19;106974;1273;25427;-82
2023/11/13 08:43:10;;;;;;;11.90;6.70;;;;;;;4.32;81.23;95489.80;107048;1273;22928;-81
2023/11/13 08:45:40;;;;;;;10.70;7.20;;;;;;;4.49;81.12;95486.89;107007;1273;24550;-80
2023/11/13 08:48:27;;;;;;;25.70;15.60;;;;;;;4.77;81.20;95487.84;106840;1273;22523;-83
2023/11/13 08:50:59;;;;;;;33.00;20.60;;;;;;;4.94;80.39;95491.00;107152;1266;23918;-81
2023/11/13 08:53:29;;;;;;;65.90;44.80;;;;;;;5.05;79.22;95482.30;107146;1273;22685;-83
2023/11/13 08:55:59;;;;;;;11.00;5.70;;;;;;;5.17;77.92;95475.00;109360;1273;23746;-81
2023/11/13 08:58:28;;;;;;;8.10;5.50;;;;;;;5.29;76.73;95472.20;108660;1273;22803;-81
2023/11/13 09:00:58;;;;;;;12.70;6.50;;;;;;;5.26;75.95;95464.71;107020;1273;22533;-81
2023/11/13 09:03:29;;;;;;;9.10;5.10;;;;;;;5.33;74.90;95459.11;107012;1273;22485;-82
2023/11/13 09:06:07;;;;;;;4.80;2.60;;;;;;;5.36;72.56;95462.96;107160;1273;25300;-82
2023/11/13 09:08:42;;;;;;;9.50;5.50;;;;;;;5.29;73.67;95463.31;107177;1273;24238;-83
2023/11/13 09:11:16;;;;;;;10.30;5.60;;;;;;;5.26;74.57;95466.96;108718;1273;24418;-85
2023/11/13 09:13:46;;;;;;;8.00;4.80;;;;;;;5.14;74.61;95462.61;107004;1273;24250;-85
2023/11/13 09:16:17;;;;;;;5.50;3.60;;;;;;;5.29;75.53;95458.94;108026;1273;22615;-84
2023/11/13 09:18:50;;;;;;;2.60;1.70;;;;;;;5.53;75.09;95449.50;107188;1273;22523;-82
2023/11/13 09:21:18;;;;;;;5.90;2.90;;;;;;;5.85;73.25;95441.05;107250;1266;25300;-85
2023/11/13 09:23:46;;;;;;;2.40;1.70;;;;;;;6.01;72.33;95435.63;107210;1270;25375;-84
2023/11/13 09:26:15;;;;;;;2.50;1.60;;;;;;;6.14;70.16;95432.10;107063;1273;22577;-84
2023/11/13 09:28:43;;;;;;;2.50;1.40;;;;;;;6.19;68.89;95432.94;107193;1273;22530;-83
2023/11/13 09:31:11;;;;;;;3.50;2.50;;;;;;;6.18;69.35;95426.66;107354;1273;25388;-83
2023/11/13 09:33:40;;;;;;;1.20;0.90;;;;;;;6.25;69.07;95419.11;107078;1273;22528;-86
2023/11/13 09:36:08;;;;;;;1.90;1.50;;;;;;;6.42;70.07;95420.80;107105;1273;22517;-83
2023/11/13 09:38:37;;;;;;;2.80;1.30;;;;;;;6.53;68.99;95420.20;107320;1273;22544;-86
2023/11/13 09:41:05;;;;;;;1.00;0.70;;;;;;;6.78;68.44;95414.09;107091;1273;24215;-84
2023/11/13 09:43:35;;;;;;;3.90;2.90;;;;;;;7.15;68.28;95408.39;107199;1273;24444;-83
2023/11/13 09:46:08;;;;;;;3.40;1.90;;;;;;;7.58;64.88;95403.11;107132;1273;23882;-83
2023/11/13 09:48:51;;;;;;;2.70;1.50;;;;;;;7.97;60.91;95392.69;107181;1273;23379;-84
2023/11/13 09:51:24;;;;;;;1.80;0.80;;;;;;;8.55;62.75;95393.56;107058;1273;22532;-80
2023/11/13 09:54:00;;;;;;;2.40;1.30;;;;;;;9.09;62.67;95393.98;107085;1273;23253;-82
2023/11/13 09:56:29;;;;;;;12.40;9.40;;;;;;;9.36;62.04;95390.57;106969;1273;22994;-82
2023/11/13 09:59:02;;;;;;;7.00;6.20;;;;;;;9.35;59.71;95400.05;107138;1273;24092;-81
2023/11/13 10:01:32;;;;;;;1.30;1.00;;;;;;;9.23;58.33;95395.69;107044;1250;22540;-82
2023/11/13 10:04:04;;;;;;;3.10;2.10;;;;;;;9.11;58.17;95396.23;107188;1273;22521;-83
2023/11/13 10:06:36;;;;;;;15.80;10.30;;;;;;;9.02;58.69;95397.08;106854;1273;22523;-83
2023/11/13 10:09:04;;;;;;;4.10;3.00;;;;;;;8.93;58.31;95393.01;107032;1273;22528;-82
2023/11/13 10:11:33;;;;;;;4.90;2.50;;;;;;;8.80;57.64;95396.88;106988;1273;25359;-84
2023/11/13 10:14:18;;;;;;;8.10;3.20;;;;;;;8.74;59.91;95390.13;107256;1273;24247;-81
2023/11/13 10:16:57;;;;;;;2.80;2.00;;;;;;;8.71;59.42;95387.55;106905;1273;22520;-82
2023/11/13 10:19:26;;;;;;;4.40;1.50;;;;;;;8.66;59.98;95381.84;107005;1263;22649;-82
2023/11/13 10:21:56;;;;;;;2.80;1.60;;;;;;;8.64;59.81;95380.29;107038;1273;22637;-81
2023/11/13 10:24:25;;;;;;;1.10;0.90;;;;;;;8.70;59.88;95378.61;106939;1273;25929;-84
2023/11/13 10:27:12;;;;;;;1.20;0.90;;;;;;;8.94;59.48;95377.38;107222;1273;22532;-82
2023/11/13 10:29:41;;;;;;;3.10;1.00;;;;;;;9.24;60.20;95378.81;110267;1273;22532;-80
2023/11/13 10:32:10;;;;;;;2.90;1.50;;;;;;;9.32;59.91;95376.41;107490;1273;24215;-81
2023/11/13 10:34:43;;;;;;;2.60;1.00;;;;;;;9.35;58.88;95376.53;107197;1273;24285;-80
2023/11/13 10:37:15;;;;;;;1.60;1.10;;;;;;;9.30;58.84;95378.17;107237;1273;22534;-80
2023/11/13 10:39:44;;;;;;;2.70;1.00;;;;;;;9.24;58.50;95377.59;107270;1273;25215;-80
2023/11/13 10:42:23;;;;;;;2.50;0.90;;;;;;;9.04;55.18;95379.69;107334;1273;22550;-80
2023/11/13 10:44:56;;;;;;;1.80;1.10;;;;;;;8.95;57.02;95375.27;107005;1273;25258;-80
2023/11/13 10:47:35;;;;;;;3.30;1.10;;;;;;;8.90;57.46;95369.55;106980;1273;22568;-80
2023/11/13 10:50:15;;;;;;;2.00;1.40;;;;;;;8.86;58.48;95370.33;107085;1273;25359;-80
2023/11/13 10:52:51;;;;;;;2.30;1.30;;;;;;;8.83;58.87;95369.83;106933;1273;22536;-81
2023/11/13 10:55:21;;;;;;;2.10;1.20;;;;;;;8.81;58.97;95363.36;106719;1273;22523;-80
2023/11/13 10:57:49;;;;;;;2.20;1.30;;;;;;;8.84;58.88;95365.08;106923;1273;22529;-80
2023/11/13 11:00:18;;;;;;;4.20;1.30;;;;;;;8.80;58.89;95367.07;106768;1273;24474;-81
2023/11/13 11:02:48;;;;;;;1.50;1.10;;;;;;;8.76;58.44;95362.04;106923;1266;22517;-80
2023/11/13 11:05:22;;;;;;;1.90;1.30;;;;;;;8.74;59.11;95359.27;106957;1273;22676;-80
2023/11/13 11:07:53;;;;;;;2.20;1.40;;;;;;;8.68;58.34;95358.30;106831;1273;22523;-81
2023/11/13 11:10:26;;;;;;;2.90;1.80;;;;;;;8.58;56.94;95354.43;106954;1273;22516;-81
2023/11/13 11:13:05;;;;;;;6.40;1.60;;;;;;;8.50;57.61;95358.56;106908;1272;24333;-80
2023/11/13 11:16:05;;;;;;;5.00;1.60;;;;;;;8.46;58.65;95357.58;106832;1270;22525;-81
2023/11/13 11:18:41;;;;;;;3.00;2.00;;;;;;;8.45;59.49;95356.19;106920;1273;22546;-81
2023/11/13 11:21:36;;;;;;;2.90;2.40;;;;;;;8.52;59.30;95353.65;106966;1273;22645;-80
2023/11/13 11:24:11;;;;;;;2.40;2.00;;;;;;;8.68;59.86;95342.00;107023;1273;25245;-81
2023/11/13 11:26:54;;;;;;;6.20;3.70;;;;;;;8.89;59.45;95335.89;106911;1273;25490;-81
2023/11/13 11:29:40;;;;;;;4.00;1.90;;;;;;;9.44;57.06;95342.84;106989;1273;25263;-81
2023/11/13 11:32:15;;;;;;;4.60;1.90;;;;;;;9.30;54.40;95339.73;107112;1273;24268;-81
2023/11/13 11:34:49;;;;;;;8.40;4.60;;;;;;;9.16;55.79;95340.70;107049;1273;22535;-80
2023/11/13 11:37:19;;;;;;;4.80;3.80;;;;;;;9.02;56.22;95342.35;106947;1273;25408;-81
2023/11/13 11:39:51;;;;;;;5.30;3.40;;;;;;;8.86;56.58;95336.13;106930;1273;22652;-81
2023/11/13 11:42:24;;;;;;;4.10;2.50;;;;;;;8.72;56.34;95339.66;107163;1273;25296;-80
2023/11/13 11:45:06;;;;;;;4.90;2.80;;;;;;;8.66;57.57;95336.60;106905;1273;24213;-81